Time;durP1;ratioP1;P1;durP2;ratioP2;P2;SDS_P1;SDS_P2;PMS_P1;PMS_P2;Temp;Humidity;BMP_temperature;BMP_pressure;BME280_temperature;BME280_humidity;BME280_pressure;Samples;Min_cycle;Max_cycle;Signal;HPM_P1;HPM_P2
2023/03/31 00:01:24;;;;;;;10.73;2.42;;;;;;;10.58;100.00;-18312.84;4972517;28;20076;-82
2023/03/31 00:03:49;;;;;;;9.15;2.70;;;;;;;10.57;100.00;-18312.56;4950048;28;20050;-82
2023/03/31 00:06:18;;;;;;;9.02;2.83;;;;;;;10.53;100.00;-18311.59;4957918;28;20048;-80
2023/03/31 00:08:44;;;;;;;11.43;2.88;;;;;;;10.52;100.00;-18311.31;4950969;28;20050;-82
2023/03/31 00:11:10;;;;;;;10.70;3.40;;;;;;;10.52;100.00;-18311.31;4963565;28;20048;-82
2023/03/31 00:13:36;;;;;;;9.63;2.80;;;;;;;10.42;100.00;-18308.56;4951777;28;20118;-82
2023/03/31 00:16:06;;;;;;;10.77;2.50;;;;;;;10.37;100.00;-18307.19;4950719;28;20043;-82
2023/03/31 00:18:31;;;;;;;11.07;3.47;;;;;;;10.37;100.00;-18307.34;4945610;28;20043;-81
2023/03/31 00:21:23;;;;;;;5.78;2.80;;;;;;;10.31;100.00;-18305.69;4952595;28;20142;-82
2023/03/31 00:23:52;;;;;;;10.93;3.03;;;;;;;10.30;100.00;-18305.28;4964142;28;20050;-82
2023/03/31 00:26:17;;;;;;;7.30;2.83;;;;;;;10.30;100.00;-18305.28;4953857;28;20608;-81
2023/03/31 00:28:42;;;;;;;8.13;2.40;;;;;;;10.21;100.00;-18302.78;4953540;28;20051;-83
2023/03/31 00:31:08;;;;;;;9.90;2.33;;;;;;;10.20;100.00;-18302.66;4948743;28;20074;-82
2023/03/31 00:33:33;;;;;;;7.60;2.30;;;;;;;10.26;100.00;-18304.16;4947492;28;20058;-82
2023/03/31 00:36:00;;;;;;;10.38;3.30;;;;;;;10.27;100.00;-18304.44;4945495;28;20192;-83
2023/03/31 00:38:28;;;;;;;5.53;2.40;;;;;;;10.30;100.00;-18305.28;4950527;28;20039;-80
2023/03/31 00:40:54;;;;;;;8.77;3.00;;;;;;;10.27;100.00;-18304.44;4951956;28;20043;-81
2023/03/31 00:43:29;;;;;;;10.77;2.90;;;;;;;10.27;100.00;-18304.44;4951233;28;20039;-82
2023/03/31 00:46:14;;;;;;;6.93;2.70;;;;;;;10.28;100.00;-18304.88;4948061;28;20524;-82
2023/03/31 00:48:47;;;;;;;11.18;3.35;;;;;;;10.27;100.00;-18304.44;4947200;28;20089;-83
2023/03/31 00:51:13;;;;;;;7.32;2.88;;;;;;;10.26;100.00;-18304.16;4960039;28;20043;-82
2023/03/31 00:53:39;;;;;;;12.07;3.28;;;;;;;10.24;100.00;-18303.75;4947113;28;20066;-81
2023/03/31 00:56:10;;;;;;;9.48;3.70;;;;;;;10.29;100.00;-18305.00;4954895;28;20043;-80
2023/03/31 00:58:42;;;;;;;6.50;3.00;;;;;;;10.27;100.00;-18304.44;4954337;28;20125;-83
2023/03/31 01:01:13;;;;;;;11.43;3.38;;;;;;;10.27;100.00;-18304.44;4970380;28;20047;-83
2023/03/31 01:03:41;;;;;;;10.80;2.92;;;;;;;10.29;100.00;-18305.13;4956510;28;20082;-83
2023/03/31 01:06:09;;;;;;;9.98;2.45;;;;;;;10.22;100.00;-18303.06;4951494;28;20125;-82
2023/03/31 01:08:36;;;;;;;10.50;3.40;;;;;;;10.22;100.00;-18303.06;4954158;28;20467;-83
2023/03/31 01:11:06;;;;;;;8.77;2.92;;;;;;;10.20;100.00;-18302.66;4962096;28;20055;-83
2023/03/31 01:13:35;;;;;;;5.28;3.17;;;;;;;10.15;100.00;-18301.41;4971422;28;20047;-83
2023/03/31 01:16:01;;;;;;;7.32;2.90;;;;;;;10.15;100.00;-18301.28;4978742;28;20053;-83
2023/03/31 01:18:27;;;;;;;8.38;2.67;;;;;;;10.12;100.00;-18300.59;4976435;28;20490;-82
2023/03/31 01:21:05;;;;;;;7.47;3.17;;;;;;;10.12;100.00;-18300.59;4957956;28;20510;-83
2023/03/31 01:23:50;;;;;;;8.25;2.80;;;;;;;10.06;100.00;-18298.94;4963845;28;20047;-82
2023/03/31 01:26:46;;;;;;;8.23;3.15;;;;;;;10.10;100.00;-18300.06;4975672;28;20101;-82
2023/03/31 01:29:20;;;;;;;7.30;3.03;;;;;;;10.07;100.00;-18299.22;4973235;28;20452;-83
2023/03/31 01:31:49;;;;;;;6.40;3.13;;;;;;;10.09;100.00;-18299.63;4964428;28;20047;-83
2023/03/31 01:34:30;;;;;;;6.63;3.50;;;;;;;10.14;100.00;-18301.16;4962150;28;20043;-82
2023/03/31 01:37:05;;;;;;;9.68;3.55;;;;;;;10.17;100.00;-18301.84;4969182;28;20342;-83
2023/03/31 01:39:55;;;;;;;10.05;3.20;;;;;;;10.23;100.00;-18303.34;4955714;28;20475;-82
2023/03/31 01:42:33;;;;;;;10.27;3.10;;;;;;;10.23;100.00;-18303.34;4960587;28;20047;-82
2023/03/31 01:45:36;;;;;;;9.55;3.60;;;;;;;10.20;100.00;-18302.53;4962469;28;20043;-82
2023/03/31 01:48:17;;;;;;;10.60;3.70;;;;;;;10.15;100.00;-18301.41;4969237;28;20042;-82
2023/03/31 01:50:46;;;;;;;13.07;3.88;;;;;;;10.17;100.00;-18301.97;4955286;28;20450;-82
2023/03/31 01:53:40;;;;;;;;;;;;;;;10.17;100.00;-18301.97;4956144;28;20054;-82
2023/03/31 01:56:14;;;;;;;13.40;4.18;;;;;;;10.06;100.00;-18298.94;4966777;28;19922;-82
2023/03/31 01:59:09;;;;;;;13.20;4.50;;;;;;;10.06;100.00;-18298.94;4954871;28;20043;-82
2023/03/31 02:01:46;;;;;;;9.43;3.05;;;;;;;10.03;100.00;-18298.13;4951938;28;20047;-82
2023/03/31 02:04:17;;;;;;;10.30;4.10;;;;;;;10.08;100.00;-18299.50;4957352;28;20046;-82
2023/03/31 02:06:48;;;;;;;11.52;3.60;;;;;;;10.08;100.00;-18299.38;4953195;28;20126;-83
2023/03/31 02:09:19;;;;;;;6.93;3.53;;;;;;;10.10;100.00;-18300.06;4961677;28;20035;-83
2023/03/31 02:11:47;;;;;;;8.30;3.60;;;;;;;10.08;100.00;-18299.50;4961209;28;20057;-82
2023/03/31 02:14:20;;;;;;;7.82;3.42;;;;;;;10.06;100.00;-18298.94;4966439;28;20047;-83
2023/03/31 02:16:48;;;;;;;9.50;3.85;;;;;;;10.08;100.00;-18299.50;4971155;28;20097;-82
2023/03/31 02:19:18;;;;;;;12.37;5.10;;;;;;;10.03;100.00;-18298.13;4962964;28;20035;-82
2023/03/31 02:21:47;;;;;;;8.63;4.97;;;;;;;10.04;100.00;-18298.25;4962016;28;20046;-83
2023/03/31 02:24:14;;;;;;;12.20;4.53;;;;;;;10.01;100.00;-18297.56;4962997;28;20466;-82
2023/03/31 02:27:08;;;;;;;11.85;4.30;;;;;;;10.04;100.00;-18298.41;4959965;28;20047;-82
2023/03/31 02:29:34;;;;;;;11.65;4.85;;;;;;;10.05;100.00;-18298.69;4961607;28;20069;-83
2023/03/31 02:32:07;;;;;;;11.75;3.95;;;;;;;10.06;100.00;-18298.94;4961143;28;20059;-82
2023/03/31 02:34:32;;;;;;;11.88;5.25;;;;;;;10.02;100.00;-18297.84;4967013;28;20050;-82
2023/03/31 02:36:57;;;;;;;11.57;5.43;;;;;;;10.02;100.00;-18297.84;4957778;28;20057;-82
2023/03/31 02:39:29;;;;;;;15.93;5.95;;;;;;;10.04;100.00;-18298.25;4961811;28;20035;-83
2023/03/31 02:41:55;;;;;;;12.90;5.90;;;;;;;10.01;100.00;-18297.44;4965966;28;20051;-83
2023/03/31 02:44:21;;;;;;;13.30;6.05;;;;;;;9.99;100.00;-18297.03;4960884;28;20039;-83
2023/03/31 02:46:47;;;;;;;10.77;6.00;;;;;;;9.98;100.00;-18296.63;4962087;28;20058;-82
2023/03/31 02:49:15;;;;;;;10.85;6.13;;;;;;;9.99;100.00;-18297.03;4958849;28;20093;-82
2023/03/31 02:52:22;;;;;;;11.50;6.70;;;;;;;10.01;100.00;-18297.56;4959336;28;20043;-83
2023/03/31 02:55:05;;;;;;;12.85;6.72;;;;;;;9.98;100.00;-18296.75;4961598;28;20345;-83
2023/03/31 02:58:02;;;;;;;9.13;6.35;;;;;;;9.96;100.00;-18296.19;4963112;28;20047;-83
2023/03/31 03:00:36;;;;;;;12.43;7.40;;;;;;;9.98;100.00;-18296.75;4958373;28;20103;-82
2023/03/31 03:03:30;;;;;;;10.52;7.32;;;;;;;9.99;100.00;-18297.03;4978517;28;20680;-82
2023/03/31 03:06:12;;;;;;;17.27;7.85;;;;;;;10.02;100.00;-18297.72;4971561;28;20685;-83
2023/03/31 03:08:55;;;;;;;12.30;6.72;;;;;;;10.00;100.00;-18297.31;4957809;28;20043;-82
2023/03/31 03:11:36;;;;;;;11.30;6.60;;;;;;;9.98;100.00;-18296.75;4963231;28;20043;-82
2023/03/31 03:14:39;;;;;;;11.63;7.07;;;;;;;9.96;100.00;-18296.19;4959233;28;20047;-82
2023/03/31 03:17:20;;;;;;;16.02;7.80;;;;;;;9.97;100.00;-18296.47;4932673;29;20067;-83
2023/03/31 03:19:51;;;;;;;15.88;6.30;;;;;;;9.98;100.00;-18296.75;4959908;28;20050;-82
2023/03/31 03:22:16;;;;;;;12.10;5.82;;;;;;;10.01;100.00;-18297.56;4958574;28;20129;-82
2023/03/31 03:24:42;;;;;;;11.98;5.70;;;;;;;9.99;100.00;-18296.88;4963532;28;20070;-83
2023/03/31 03:27:07;;;;;;;11.55;5.80;;;;;;;9.96;100.00;-18296.19;4961419;28;20047;-82
2023/03/31 03:29:32;;;;;;;13.05;6.32;;;;;;;9.97;100.00;-18296.34;4962012;28;20049;-82
2023/03/31 03:31:58;;;;;;;12.07;5.93;;;;;;;9.98;100.00;-18296.63;4965849;28;20063;-82
2023/03/31 03:34:24;;;;;;;14.45;5.45;;;;;;;9.95;100.00;-18295.94;4961890;28;20059;-82
2023/03/31 03:36:50;;;;;;;16.08;5.50;;;;;;;9.96;100.00;-18296.19;4958216;28;20043;-82
2023/03/31 03:39:16;;;;;;;13.38;5.03;;;;;;;9.97;100.00;-18296.47;4957297;28;20043;-82
2023/03/31 03:41:41;;;;;;;14.75;5.93;;;;;;;9.92;100.00;-18295.25;4956304;28;20062;-82
2023/03/31 03:44:06;;;;;;;10.35;4.80;;;;;;;9.91;100.00;-18294.81;4964876;28;20047;-82
2023/03/31 03:46:32;;;;;;;12.85;4.70;;;;;;;9.89;100.00;-18294.28;4960667;28;20066;-82
2023/03/31 03:48:57;;;;;;;13.38;7.25;;;;;;;9.91;100.00;-18294.97;4955356;28;20073;-82
2023/03/31 03:51:22;;;;;;;16.42;8.18;;;;;;;9.99;100.00;-18297.03;4956554;28;20057;-83
2023/03/31 03:53:48;;;;;;;20.27;6.90;;;;;;;9.98;100.00;-18296.75;4972218;28;20068;-83
2023/03/31 03:56:14;;;;;;;13.60;6.57;;;;;;;9.96;100.00;-18296.06;4963710;28;20047;-83
2023/03/31 03:58:39;;;;;;;11.27;6.15;;;;;;;10.04;100.00;-18298.41;4962377;28;20562;-83
2023/03/31 04:01:05;;;;;;;20.00;7.93;;;;;;;9.97;100.00;-18296.47;4965018;28;20031;-83
2023/03/31 04:03:30;;;;;;;15.38;6.43;;;;;;;10.17;100.00;-18301.84;4964577;28;20062;-83
2023/03/31 04:05:56;;;;;;;15.45;6.53;;;;;;;10.13;100.00;-18300.75;4961415;28;20035;-83
2023/03/31 04:08:21;;;;;;;15.77;6.63;;;;;;;10.03;100.00;-18298.00;4959875;28;20101;-83
2023/03/31 04:10:48;;;;;;;19.27;7.10;;;;;;;10.01;100.00;-18297.56;4961919;28;20046;-82
2023/03/31 04:13:14;;;;;;;19.33;6.88;;;;;;;10.07;100.00;-18299.22;4959739;28;20460;-83
2023/03/31 04:15:41;;;;;;;13.38;6.05;;;;;;;10.13;100.00;-18300.88;4963394;28;20043;-83
2023/03/31 04:18:09;;;;;;;14.88;6.80;;;;;;;10.08;100.00;-18299.50;4957828;28;20042;-83
2023/03/31 04:20:37;;;;;;;12.75;6.38;;;;;;;10.04;100.00;-18298.41;4958317;28;20059;-83
2023/03/31 04:23:08;;;;;;;16.80;6.63;;;;;;;10.07;100.00;-18299.09;4965444;28;20043;-83
2023/03/31 04:25:37;;;;;;;12.40;6.85;;;;;;;10.05;100.00;-18298.53;4964653;28;20039;-83
2023/03/31 04:28:05;;;;;;;11.60;5.10;;;;;;;10.08;100.00;-18299.50;4959863;28;20059;-84
2023/03/31 04:30:31;;;;;;;16.43;6.47;;;;;;;10.14;100.00;-18301.00;4957399;28;20106;-83
2023/03/31 04:32:59;;;;;;;15.85;5.50;;;;;;;10.08;100.00;-18299.38;4968712;28;20889;-84
2023/03/31 04:35:37;;;;;;;16.95;6.47;;;;;;;10.16;100.00;-18301.56;4951767;28;20039;-84
2023/03/31 04:38:02;;;;;;;19.80;6.60;;;;;;;10.12;100.00;-18300.47;4959615;28;20101;-83
2023/03/31 04:40:28;;;;;;;17.58;5.65;;;;;;;10.13;100.00;-18300.88;4957808;28;20035;-83
2023/03/31 04:42:53;;;;;;;15.82;6.57;;;;;;;10.12;100.00;-18300.47;4957365;28;20074;-84
2023/03/31 04:45:18;;;;;;;16.35;6.00;;;;;;;10.15;100.00;-18301.28;4958389;28;20791;-84
2023/03/31 04:47:44;;;;;;;12.45;6.85;;;;;;;10.16;100.00;-18301.69;4962775;28;20178;-83
2023/03/31 04:50:10;;;;;;;17.70;6.75;;;;;;;10.17;100.00;-18301.97;4952331;28;20073;-82
2023/03/31 04:52:35;;;;;;;14.35;6.63;;;;;;;10.17;100.00;-18301.97;4956555;28;20075;-82
2023/03/31 04:55:01;;;;;;;15.20;7.85;;;;;;;10.20;100.00;-18302.66;4961640;28;20069;-82
2023/03/31 04:57:26;;;;;;;15.18;7.43;;;;;;;10.26;100.00;-18304.31;4961415;28;20135;-82
2023/03/31 04:59:52;;;;;;;23.02;8.95;;;;;;;10.23;100.00;-18303.47;4969599;28;20102;-82
2023/03/31 05:02:22;;;;;;;21.13;6.75;;;;;;;10.15;100.00;-18301.41;4954057;28;20479;-82
2023/03/31 05:04:49;;;;;;;18.38;6.50;;;;;;;10.14;100.00;-18301.00;4955505;28;20075;-82
2023/03/31 05:07:15;;;;;;;16.48;6.28;;;;;;;10.13;100.00;-18300.88;4959590;28;20074;-82
2023/03/31 05:09:40;;;;;;;16.42;6.18;;;;;;;10.15;100.00;-18301.41;4950048;28;20545;-82
2023/03/31 05:12:06;;;;;;;24.08;6.47;;;;;;;10.18;100.00;-18302.09;4953819;28;20043;-82
2023/03/31 05:14:31;;;;;;;16.13;6.18;;;;;;;10.16;100.00;-18301.56;4973086;28;20045;-82
2023/03/31 05:16:58;;;;;;;18.60;6.93;;;;;;;10.22;100.00;-18303.06;4956630;28;20575;-83
2023/03/31 05:19:23;;;;;;;24.08;7.60;;;;;;;10.23;100.00;-18303.34;4947883;28;20058;-82
2023/03/31 05:21:48;;;;;;;16.63;6.88;;;;;;;10.32;100.00;-18305.81;4952110;28;20053;-82
2023/03/31 05:24:14;;;;;;;15.43;5.63;;;;;;;10.22;100.00;-18303.06;4953720;28;20039;-82
2023/03/31 05:26:40;;;;;;;19.30;6.32;;;;;;;10.18;100.00;-18302.09;4960441;28;20093;-83
2023/03/31 05:29:05;;;;;;;14.02;5.28;;;;;;;10.16;100.00;-18301.69;4961469;28;20130;-82
2023/03/31 05:31:31;;;;;;;16.35;5.60;;;;;;;10.15;100.00;-18301.41;4952669;28;20373;-82
2023/03/31 05:33:56;;;;;;;16.70;4.93;;;;;;;10.15;100.00;-18301.28;4959353;28;20142;-82
2023/03/31 05:36:22;;;;;;;18.48;5.68;;;;;;;10.11;100.00;-18300.31;4961663;28;20050;-82
2023/03/31 05:38:48;;;;;;;18.73;5.93;;;;;;;10.10;100.00;-18300.06;4963212;28;20079;-83
2023/03/31 05:41:15;;;;;;;23.38;6.90;;;;;;;10.00;100.00;-18297.31;4959669;28;20042;-83
2023/03/31 05:43:42;;;;;;;19.90;6.00;;;;;;;10.02;100.00;-18297.84;4955690;28;21642;-82
2023/03/31 05:46:07;;;;;;;15.73;6.40;;;;;;;10.01;100.00;-18297.44;4957610;28;20042;-82
2023/03/31 05:48:33;;;;;;;18.55;6.50;;;;;;;10.00;100.00;-18297.31;4952134;28;20039;-82
2023/03/31 05:51:00;;;;;;;17.77;6.13;;;;;;;9.94;100.00;-18295.78;4956393;28;20062;-82
2023/03/31 05:53:26;;;;;;;23.15;7.32;;;;;;;9.93;100.00;-18295.38;4960525;28;20043;-82
2023/03/31 05:56:00;;;;;;;20.38;8.10;;;;;;;10.03;100.00;-18298.13;4978728;28;20674;-82
2023/03/31 05:58:26;;;;;;;21.85;9.25;;;;;;;9.99;100.00;-18296.88;4956728;28;20043;-82
2023/03/31 06:01:10;;;;;;;26.90;10.13;;;;;;;9.97;100.00;-18296.47;4956570;28;20086;-82
2023/03/31 06:03:39;;;;;;;27.95;12.32;;;;;;;9.98;100.00;-18296.63;4952026;28;20110;-82
2023/03/31 06:06:06;;;;;;;27.17;12.23;;;;;;;9.96;100.00;-18296.19;4964462;28;20136;-82
2023/03/31 06:08:32;;;;;;;24.35;11.55;;;;;;;9.92;100.00;-18295.25;4955954;28;20082;-82
2023/03/31 06:10:57;;;;;;;26.00;9.98;;;;;;;9.93;100.00;-18295.50;4959661;28;20432;-82
2023/03/31 06:13:23;;;;;;;26.27;10.85;;;;;;;9.94;100.00;-18295.66;4972938;28;20106;-81
2023/03/31 06:15:53;;;;;;;22.95;10.85;;;;;;;9.94;100.00;-18295.66;4960194;28;20045;-82
2023/03/31 06:18:18;;;;;;;28.42;10.65;;;;;;;9.97;100.00;-18296.34;4957681;28;20069;-83
2023/03/31 06:20:43;;;;;;;23.17;10.20;;;;;;;10.00;100.00;-18297.16;4963283;28;20045;-82
2023/03/31 06:23:09;;;;;;;19.40;8.05;;;;;;;10.00;100.00;-18297.16;4956010;28;20427;-82
2023/03/31 06:25:37;;;;;;;16.20;7.65;;;;;;;10.02;100.00;-18297.84;4952848;28;20063;-83
2023/03/31 06:28:02;;;;;;;20.60;7.88;;;;;;;10.02;100.00;-18297.72;4957609;28;20043;-83
2023/03/31 06:30:27;;;;;;;14.38;6.47;;;;;;;10.04;100.00;-18298.41;4951072;28;20043;-82
2023/03/31 06:32:53;;;;;;;18.90;7.80;;;;;;;10.01;100.00;-18297.56;4986755;28;20051;-82
2023/03/31 06:35:18;;;;;;;14.55;6.70;;;;;;;10.01;100.00;-18297.44;4962994;28;20054;-82
2023/03/31 06:37:44;;;;;;;13.57;5.97;;;;;;;10.01;100.00;-18297.56;4954868;28;20070;-81
2023/03/31 06:40:09;;;;;;;18.20;6.95;;;;;;;10.06;100.00;-18298.81;4951806;28;20515;-82
2023/03/31 06:42:35;;;;;;;15.93;6.43;;;;;;;10.02;100.00;-18297.84;4955337;28;20086;-83
2023/03/31 06:45:00;;;;;;;16.23;6.70;;;;;;;10.09;100.00;-18299.78;4962723;28;20075;-82
2023/03/31 06:47:25;;;;;;;14.13;6.03;;;;;;;10.07;100.00;-18299.22;4969980;28;20517;-81
2023/03/31 06:49:51;;;;;;;17.27;6.40;;;;;;;10.06;100.00;-18298.94;4971145;28;20466;-82
2023/03/31 06:52:16;;;;;;;13.40;4.45;;;;;;;10.05;100.00;-18298.69;4959957;28;20457;-81
2023/03/31 06:54:42;;;;;;;13.80;5.53;;;;;;;10.07;100.00;-18299.22;4956344;28;20415;-82
2023/03/31 06:57:07;;;;;;;11.77;5.85;;;;;;;10.15;100.00;-18301.28;4965562;28;20039;-82
2023/03/31 06:59:32;;;;;;;11.95;5.90;;;;;;;10.17;100.00;-18301.97;4956490;28;20113;-81
2023/03/31 07:01:58;;;;;;;14.18;5.55;;;;;;;10.21;100.00;-18302.94;4968654;28;20044;-82
2023/03/31 07:04:23;;;;;;;13.52;5.10;;;;;;;10.27;100.00;-18304.59;4976341;28;20031;-81
2023/03/31 07:06:48;;;;;;;9.30;4.90;;;;;;;10.18;100.00;-18302.09;4991724;28;20051;-81
2023/03/31 07:09:14;;;;;;;16.58;5.28;;;;;;;10.12;100.00;-18300.59;4966149;28;20459;-82
2023/03/31 07:11:39;;;;;;;11.05;4.50;;;;;;;10.19;100.00;-18302.25;4972832;28;20492;-82
2023/03/31 07:14:05;;;;;;;12.57;4.60;;;;;;;10.22;100.00;-18303.22;4966571;28;20043;-81
2023/03/31 07:16:30;;;;;;;10.18;4.97;;;;;;;10.25;100.00;-18303.91;4954737;28;20046;-82
2023/03/31 07:18:56;;;;;;;12.63;4.65;;;;;;;10.27;100.00;-18304.44;4959800;28;20047;-82
2023/03/31 07:21:22;;;;;;;8.65;3.90;;;;;;;10.24;100.00;-18303.63;4964915;28;20042;-82
2023/03/31 07:23:47;;;;;;;13.02;4.80;;;;;;;10.31;100.00;-18305.69;4965707;28;20047;-82
2023/03/31 07:26:12;;;;;;;11.50;3.72;;;;;;;10.32;100.00;-18305.81;4956840;28;20063;-83
2023/03/31 07:28:38;;;;;;;10.50;4.00;;;;;;;10.32;100.00;-18305.81;4968544;28;20043;-82
2023/03/31 07:31:10;;;;;;;7.57;3.72;;;;;;;10.33;100.00;-18306.09;4971650;28;20048;-79
2023/03/31 07:33:35;;;;;;;9.30;3.20;;;;;;;10.27;100.00;-18304.44;4955284;28;20041;-81
2023/03/31 07:36:04;;;;;;;8.90;3.75;;;;;;;10.29;100.00;-18305.13;4970496;28;20057;-82
2023/03/31 07:38:29;;;;;;;;;;;;;;;10.31;100.00;-18305.69;4958789;28;20041;-82
2023/03/31 07:40:55;;;;;;;8.45;3.92;;;;;;;10.22;100.00;-18303.22;4962655;28;20386;-82
2023/03/31 07:43:20;;;;;;;8.88;3.20;;;;;;;10.20;100.00;-18302.66;4955867;28;20051;-82
2023/03/31 07:45:45;;;;;;;11.15;3.95;;;;;;;10.26;100.00;-18304.16;4969176;28;20043;-80
2023/03/31 07:48:11;;;;;;;13.63;4.00;;;;;;;10.25;100.00;-18303.91;4955240;28;20081;-83
2023/03/31 07:50:37;;;;;;;8.10;3.80;;;;;;;10.24;100.00;-18303.75;4954920;28;20073;-82
2023/03/31 07:53:02;;;;;;;9.18;4.32;;;;;;;10.25;100.00;-18303.91;4955647;28;20106;-82
2023/03/31 07:55:28;;;;;;;8.75;3.75;;;;;;;10.27;100.00;-18304.44;4950154;28;20403;-83
2023/03/31 07:57:53;;;;;;;8.50;3.80;;;;;;;10.24;100.00;-18303.63;4950373;28;20047;-82
2023/03/31 08:00:20;;;;;;;8.60;4.07;;;;;;;10.30;100.00;-18305.28;4958719;28;20043;-82
2023/03/31 08:02:45;;;;;;;9.18;4.65;;;;;;;10.41;100.00;-18308.31;4949370;28;20043;-82
2023/03/31 08:05:13;;;;;;;8.77;3.92;;;;;;;10.31;100.00;-18305.69;4956261;28;20052;-82
2023/03/31 08:07:40;;;;;;;9.45;3.78;;;;;;;10.32;100.00;-18305.97;4950966;28;20042;-82
2023/03/31 08:10:15;;;;;;;10.40;3.95;;;;;;;10.27;100.00;-18304.44;4967356;28;20046;-82
2023/03/31 08:12:40;;;;;;;13.20;5.53;;;;;;;10.27;100.00;-18304.59;4967400;28;20207;-83
2023/03/31 08:15:06;;;;;;;7.95;3.95;;;;;;;10.21;100.00;-18302.78;4960323;28;20171;-81
2023/03/31 08:17:32;;;;;;;6.85;3.90;;;;;;;10.23;100.00;-18303.34;4947534;28;20507;-83
2023/03/31 08:19:57;;;;;;;7.53;3.40;;;;;;;10.26;100.00;-18304.16;4964457;28;20051;-82
2023/03/31 08:22:22;;;;;;;7.53;4.65;;;;;;;10.26;100.00;-18304.31;4945705;28;20151;-80
2023/03/31 08:24:48;;;;;;;7.22;3.40;;;;;;;10.23;100.00;-18303.34;4963965;28;20663;-81
2023/03/31 08:27:13;;;;;;;6.18;3.20;;;;;;;10.20;100.00;-18302.53;4960210;28;20416;-83
2023/03/31 08:29:39;;;;;;;5.75;3.20;;;;;;;10.27;100.00;-18304.44;4954098;28;20079;-82
2023/03/31 08:32:05;;;;;;;10.00;2.70;;;;;;;10.21;100.00;-18302.78;4953226;28;20139;-81
2023/03/31 08:34:31;;;;;;;5.82;3.20;;;;;;;10.20;100.00;-18302.66;4952061;28;20066;-83
2023/03/31 08:36:56;;;;;;;6.70;2.50;;;;;;;10.22;100.00;-18303.06;4945941;28;20530;-81
2023/03/31 08:39:22;;;;;;;4.20;1.95;;;;;;;10.13;100.00;-18300.88;4950549;28;20142;-82
2023/03/31 08:41:55;;;;;;;4.60;2.50;;;;;;;10.13;100.00;-18300.88;4964920;28;20038;-82
2023/03/31 08:44:24;;;;;;;6.97;2.22;;;;;;;10.08;100.00;-18299.50;4970274;28;20034;-83
2023/03/31 08:46:54;;;;;;;6.57;3.03;;;;;;;10.08;100.00;-18299.38;4949750;28;20146;-83
2023/03/31 08:49:20;;;;;;;5.22;2.50;;;;;;;10.07;100.00;-18299.22;4949673;28;20047;-82
2023/03/31 08:51:58;;;;;;;5.82;2.80;;;;;;;10.01;100.00;-18297.56;4949654;28;20598;-83
2023/03/31 08:54:34;;;;;;;8.18;3.08;;;;;;;10.04;100.00;-18298.41;4962562;28;20043;-83
2023/03/31 08:57:00;;;;;;;4.78;3.20;;;;;;;10.01;100.00;-18297.56;4966606;28;20051;-82
2023/03/31 08:59:30;;;;;;;7.03;3.30;;;;;;;10.03;100.00;-18298.00;4953912;28;20482;-82
2023/03/31 09:02:03;;;;;;;8.82;3.30;;;;;;;9.96;100.00;-18296.06;4946876;28;20471;-82
2023/03/31 09:04:31;;;;;;;6.97;2.88;;;;;;;9.98;100.00;-18296.63;4947039;28;20051;-83
2023/03/31 09:07:24;;;;;;;9.07;3.20;;;;;;;10.02;100.00;-18297.84;4961286;28;20043;-83
2023/03/31 09:10:20;;;;;;;11.02;5.03;;;;;;;10.05;100.00;-18298.69;4947365;28;20058;-83
2023/03/31 09:13:05;;;;;;;9.60;4.50;;;;;;;10.01;100.00;-18297.56;4960029;28;20062;-82
2023/03/31 09:15:41;;;;;;;6.32;3.03;;;;;;;10.06;100.00;-18298.81;4950324;28;20126;-83
2023/03/31 09:18:17;;;;;;;5.68;2.42;;;;;;;10.09;100.00;-18299.78;4946751;28;20438;-82
2023/03/31 09:20:49;;;;;;;7.25;3.85;;;;;;;10.13;100.00;-18300.88;4949555;28;20051;-83
2023/03/31 09:23:29;;;;;;;6.22;4.38;;;;;;;10.21;100.00;-18302.78;4950947;28;20042;-82
2023/03/31 09:25:57;;;;;;;5.55;3.72;;;;;;;10.20;100.00;-18302.53;4976013;28;20047;-83
2023/03/31 09:28:33;;;;;;;10.07;3.80;;;;;;;10.27;100.00;-18304.59;4952519;28;20046;-83
2023/03/31 09:31:02;;;;;;;9.48;4.40;;;;;;;10.30;100.00;-18305.41;4949845;28;20046;-82
2023/03/31 09:33:32;;;;;;;12.50;4.73;;;;;;;10.34;100.00;-18306.50;4947930;28;20051;-82
2023/03/31 09:35:59;;;;;;;7.10;4.80;;;;;;;10.39;100.00;-18307.75;4962261;28;20491;-83
2023/03/31 09:38:28;;;;;;;9.77;5.35;;;;;;;10.39;100.00;-18307.75;4945769;28;20291;-82
2023/03/31 09:40:54;;;;;;;;;;;;;;;10.49;100.00;-18310.38;4962153;28;20050;-82
2023/03/31 09:43:25;;;;;;;14.40;5.32;;;;;;;10.47;100.00;-18309.81;4956840;28;19918;-81
2023/03/31 09:45:51;;;;;;;12.20;5.63;;;;;;;10.56;100.00;-18312.44;4961308;28;20043;-82
2023/03/31 09:48:32;;;;;;;11.63;6.00;;;;;;;10.69;100.00;-18315.84;4962663;28;20058;-82
2023/03/31 09:51:01;;;;;;;12.77;6.13;;;;;;;10.75;100.00;-18317.38;4954837;28;20062;-81
2023/03/31 09:53:46;;;;;;;11.68;5.20;;;;;;;10.75;100.00;-18317.38;4972136;28;20085;-83
2023/03/31 09:56:12;;;;;;;12.05;6.28;;;;;;;10.83;100.00;-18319.56;4959421;28;20059;-83
2023/03/31 09:58:42;;;;;;;11.13;5.00;;;;;;;10.82;100.00;-18319.28;4957007;28;20116;-83
2023/03/31 10:01:10;;;;;;;11.25;5.50;;;;;;;10.97;100.00;-18323.28;4956147;28;20096;-83
2023/03/31 10:04:07;;;;;;;9.73;5.63;;;;;;;11.11;100.00;-18327.13;4959950;28;20114;-83
2023/03/31 10:06:41;;;;;;;13.40;5.25;;;;;;;11.07;100.00;-18326.03;4958484;28;20050;-82
2023/03/31 10:09:09;;;;;;;9.80;4.90;;;;;;;11.12;100.00;-18327.41;4952845;28;20535;-82
2023/03/31 10:11:35;;;;;;;9.63;4.60;;;;;;;11.06;100.00;-18325.75;4949692;28;20047;-82
2023/03/31 10:14:12;;;;;;;11.57;5.05;;;;;;;11.19;100.00;-18329.31;4956930;28;20522;-82
2023/03/31 10:16:54;;;;;;;9.63;4.20;;;;;;;11.09;100.00;-18326.56;4955719;28;20050;-83
2023/03/31 10:19:22;;;;;;;15.90;5.20;;;;;;;11.26;100.00;-18331.09;4952459;28;20063;-82
2023/03/31 10:21:55;;;;;;;11.52;4.22;;;;;;;11.40;100.00;-18334.94;4954952;28;20073;-82
2023/03/31 10:24:21;;;;;;;13.35;4.93;;;;;;;11.40;100.00;-18334.81;4971556;28;20051;-82
2023/03/31 10:26:52;;;;;;;13.75;5.20;;;;;;;11.43;100.00;-18335.63;4955993;28;20081;-82
2023/03/31 10:29:32;;;;;;;11.02;4.53;;;;;;;11.55;100.00;-18338.78;4958345;28;20582;-82
2023/03/31 10:32:22;;;;;;;13.38;4.18;;;;;;;11.56;100.00;-18339.06;4970064;28;20073;-82
2023/03/31 10:34:48;;;;;;;12.52;5.05;;;;;;;11.70;100.00;-18342.91;4964058;28;20039;-83
2023/03/31 10:37:17;;;;;;;12.38;4.80;;;;;;;11.75;100.00;-18344.41;4956874;28;20046;-83
2023/03/31 10:39:45;;;;;;;15.13;5.18;;;;;;;11.94;100.00;-18349.50;4966789;28;20126;-83
2023/03/31 10:42:19;;;;;;;13.23;4.15;;;;;;;11.96;100.00;-18350.03;4957543;28;20042;-83
2023/03/31 10:44:45;;;;;;;14.15;3.83;;;;;;;12.06;100.00;-18352.53;4972299;28;21661;-83
2023/03/31 10:47:13;;;;;;;9.10;3.80;;;;;;;11.97;100.00;-18350.19;4957727;28;20047;-83
2023/03/31 10:49:40;;;;;;;13.35;3.35;;;;;;;11.96;100.00;-18349.91;4960892;28;20058;-83
2023/03/31 10:52:21;;;;;;;9.60;3.25;;;;;;;12.08;100.00;-18353.19;4973232;28;20035;-83
2023/03/31 10:54:50;;;;;;;13.85;3.40;;;;;;;12.08;100.00;-18353.19;4962881;28;20106;-83
2023/03/31 10:57:17;;;;;;;9.10;3.35;;;;;;;12.21;100.00;-18356.63;4966012;28;20055;-83
2023/03/31 11:00:14;;;;;;;11.95;3.72;;;;;;;12.19;100.00;-18356.09;4959263;28;20073;-83
2023/03/31 11:02:47;;;;;;;15.98;3.58;;;;;;;12.23;100.00;-18357.19;4969958;28;20051;-83
2023/03/31 11:05:35;;;;;;;10.13;2.88;;;;;;;12.27;100.00;-18358.28;4959836;28;20047;-82
2023/03/31 11:08:22;;;;;;;10.57;3.10;;;;;;;12.44;100.00;-18362.81;4994438;28;20509;-83
2023/03/31 11:11:20;;;;;;;15.25;2.78;;;;;;;12.46;100.00;-18363.22;4965745;28;20507;-82
2023/03/31 11:13:59;;;;;;;10.40;2.78;;;;;;;12.57;100.00;-18366.38;4964412;28;20051;-83
2023/03/31 11:16:27;;;;;;;14.90;3.78;;;;;;;12.75;100.00;-18371.19;4959066;28;20042;-83
2023/03/31 11:19:24;;;;;;;12.45;3.08;;;;;;;12.78;100.00;-18372.00;4973906;28;20058;-83
2023/03/31 11:22:11;;;;;;;8.18;2.30;;;;;;;12.75;100.00;-18371.19;4958713;28;20098;-83
2023/03/31 11:25:10;;;;;;;10.85;2.78;;;;;;;12.82;100.00;-18373.09;4962645;28;20050;-83
2023/03/31 11:27:47;;;;;;;14.00;2.45;;;;;;;12.79;100.00;-18372.13;4961078;28;21227;-83
2023/03/31 11:30:23;;;;;;;12.40;2.55;;;;;;;12.73;100.00;-18370.50;4964732;28;20038;-83